Terminal Aerodrome Forecast
Issued by NWS Bismarck, ND

Home | Current Version | Previous Version | Text Only | Print | Product List | Glossary On
Versions: 1 2 3 4 5 6 7 8 9 10 11 12 13 14 15 16 17 18 19 20 21
000
FTUS43 KBIS 302000 AAA
TAFBIS
TAF AMD
KBIS 302050Z 3021/3118 36010KT P6SM OVC014
     FM310100 02005KT P6SM SCT250
     FM310700 10005KT P6SM SKC
     FM311300 14009KT P6SM SKC
     FM311600 15013G23KT P6SM FEW240=

USA.gov is the U.S. government's official web portal to all federal, state and local government web resources and services.